Time;durP1;ratioP1;P1;durP2;ratioP2;P2;SDS_P1;SDS_P2;PMS_P1;PMS_P2;Temp;Humidity;BMP_temperature;BMP_pressure;BME280_temperature;BME280_humidity;BME280_pressure;Samples;Min_cycle;Max_cycle;Signal;HPM_P1;HPM_P2
2021/09/28 00:00:27;;;;;;;;;;;14.10;99.90;;;;;;5042918;28;19940;-71
2021/09/28 00:02:53;;;;;;;;;;;14.10;99.90;;;;;;5069560;28;19916;-71
2021/09/28 00:05:19;;;;;;;;;;;14.10;99.90;;;;;;5054432;28;20373;-71
2021/09/28 00:07:44;;;;;;;;;;;14.10;99.90;;;;;;5054456;28;19913;-72
2021/09/28 00:10:10;;;;;;;;;;;14.10;99.90;;;;;;5053767;28;20308;-71
2021/09/28 00:12:35;;;;;;;;;;;14.20;99.90;;;;;;5053708;28;20300;-72
2021/09/28 00:15:01;;;;;;;;;;;14.20;99.90;;;;;;5053524;28;20280;-71
2021/09/28 00:17:26;;;;;;;;;;;14.20;99.90;;;;;;5053258;28;19920;-71
2021/09/28 00:19:52;;;;;;;;;;;14.20;99.90;;;;;;5053592;28;20330;-72
2021/09/28 00:22:17;;;;;;;;;;;14.20;99.90;;;;;;5053763;28;19913;-72
2021/09/28 00:24:43;;;;;;;;;;;14.20;99.90;;;;;;5053586;28;19913;-72
2021/09/28 00:27:08;;;;;;;;;;;14.20;99.90;;;;;;5053738;28;20284;-72
2021/09/28 00:29:34;;;;;;;;;;;14.10;99.90;;;;;;5053787;28;19915;-72
2021/09/28 00:32:00;;;;;;;;;;;14.10;99.90;;;;;;5053863;28;19912;-72
2021/09/28 00:34:25;;;;;;;;;;;14.00;99.90;;;;;;5053926;28;19980;-72
2021/09/28 00:36:51;;;;;;;;;;;14.00;99.90;;;;;;5080323;28;19928;-72
2021/09/28 00:39:16;;;;;;;;;;;14.00;99.90;;;;;;5053331;28;20423;-72
2021/09/28 00:41:42;;;;;;;;;;;14.00;99.90;;;;;;5068546;28;19956;-72
2021/09/28 00:44:07;;;;;;;;;;;14.00;99.90;;;;;;5069065;28;19916;-72
2021/09/28 00:46:33;;;;;;;;;;;14.00;99.90;;;;;;5053243;28;20462;-72
2021/09/28 00:48:58;;;;;;;;;;;14.00;99.90;;;;;;5053313;28;19912;-72
2021/09/28 00:51:24;;;;;;;;;;;13.90;99.90;;;;;;5052552;28;19916;-72
2021/09/28 00:53:51;;;;;;;;;;;13.90;99.90;;;;;;5086104;28;19963;-72
2021/09/28 00:56:19;;;;;;;;;;;13.90;99.90;;;;;;5080884;28;20011;-72
2021/09/28 00:58:45;;;;;;;;;;;13.90;99.90;;;;;;5053031;28;19917;-72
2021/09/28 01:01:12;;;;;;;;;;;13.80;99.90;;;;;;5053692;28;19909;-72
2021/09/28 01:03:37;;;;;;;;;;;13.80;99.90;;;;;;5085524;28;20254;-72
2021/09/28 01:06:03;;;;;;;;;;;13.80;99.90;;;;;;5052500;28;19916;-72
2021/09/28 01:08:29;;;;;;;;;;;13.80;99.90;;;;;;5053455;28;19913;-72
2021/09/28 01:10:54;;;;;;;;;;;13.80;99.90;;;;;;5053219;28;19908;-72
2021/09/28 01:13:23;;;;;;;;;;;13.80;99.90;;;;;;5052167;28;19913;-72
2021/09/28 01:15:58;;;;;;;;;;;13.80;99.90;;;;;;5050988;28;20373;-72
2021/09/28 01:18:24;;;;;;;;;;;13.70;99.90;;;;;;5067877;28;19986;-72
2021/09/28 01:20:49;;;;;;;;;;;13.70;99.90;;;;;;5050236;28;19919;-72
2021/09/28 01:23:15;;;;;;;;;;;13.70;99.90;;;;;;5053217;28;20355;-72
2021/09/28 01:25:40;;;;;;;;;;;13.70;99.90;;;;;;5052264;28;20002;-72
2021/09/28 01:28:07;;;;;;;;;;;13.60;99.90;;;;;;5039080;28;20004;-72
2021/09/28 01:30:33;;;;;;;;;;;13.60;99.90;;;;;;5041649;28;19935;-72
2021/09/28 01:32:58;;;;;;;;;;;13.60;99.90;;;;;;5053022;28;20007;-72
2021/09/28 01:35:24;;;;;;;;;;;13.60;99.90;;;;;;5053097;28;19916;-71
2021/09/28 01:37:49;;;;;;;;;;;13.60;99.90;;;;;;5052216;28;20373;-72
2021/09/28 01:40:15;;;;;;;;;;;13.50;99.90;;;;;;5052602;28;19921;-71
2021/09/28 01:42:40;;;;;;;;;;;13.50;99.90;;;;;;5067081;28;19963;-71
2021/09/28 01:45:06;;;;;;;;;;;13.60;99.90;;;;;;5052890;28;20335;-72
2021/09/28 01:47:33;;;;;;;;;;;13.50;99.90;;;;;;5052398;28;19946;-71
2021/09/28 01:49:58;;;;;;;;;;;13.50;99.90;;;;;;5042112;28;20002;-72
2021/09/28 01:52:23;;;;;;;;;;;13.50;99.90;;;;;;5052671;28;19952;-72
2021/09/28 01:54:49;;;;;;;;;;;13.50;99.90;;;;;;5052432;28;19920;-72
2021/09/28 01:57:14;;;;;;;;;;;13.40;99.90;;;;;;5084649;28;19913;-72
2021/09/28 01:59:40;;;;;;;;;;;13.40;99.90;;;;;;5052728;28;20380;-71
2021/09/28 02:02:05;;;;;;;;;;;13.30;99.90;;;;;;5052385;28;19912;-71
2021/09/28 02:04:31;;;;;;;;;;;13.30;99.90;;;;;;5052680;28;19948;-71
2021/09/28 02:06:56;;;;;;;;;;;13.30;99.90;;;;;;5052591;28;19917;-71
2021/09/28 02:09:22;;;;;;;;;;;13.30;99.90;;;;;;5052670;28;19968;-71
2021/09/28 02:11:47;;;;;;;;;;;13.30;99.90;;;;;;5051831;28;19961;-71
2021/09/28 02:14:13;;;;;;;;;;;13.30;99.90;;;;;;5063572;28;20336;-72
2021/09/28 02:16:42;;;;;;;;;;;13.30;99.90;;;;;;5064589;28;19919;-71
2021/09/28 02:19:07;;;;;;;;;;;13.30;99.90;;;;;;5053315;28;19963;-72
2021/09/28 02:21:33;;;;;;;;;;;13.30;99.90;;;;;;5043468;28;20262;-72
2021/09/28 02:23:58;;;;;;;;;;;13.20;99.90;;;;;;5049357;28;19912;-72
2021/09/28 02:26:24;;;;;;;;;;;13.30;99.90;;;;;;5100340;28;19972;-72
2021/09/28 02:28:49;;;;;;;;;;;13.30;99.90;;;;;;5067982;28;19920;-72
2021/09/28 02:31:15;;;;;;;;;;;13.20;99.90;;;;;;5067943;28;19913;-72
2021/09/28 02:33:40;;;;;;;;;;;13.20;99.90;;;;;;5054534;28;19915;-72
2021/09/28 02:36:06;;;;;;;;;;;13.20;99.90;;;;;;5054306;28;19962;-72
2021/09/28 02:38:31;;;;;;;;;;;13.20;99.90;;;;;;5082887;28;19960;-73
2021/09/28 02:40:57;;;;;;;;;;;13.20;99.90;;;;;;5066080;28;19913;-72
2021/09/28 02:43:22;;;;;;;;;;;13.10;99.90;;;;;;5067762;28;19913;-72
2021/09/28 02:45:50;;;;;;;;;;;13.10;99.90;;;;;;5068070;28;19912;-72
2021/09/28 02:48:16;;;;;;;;;;;13.10;99.90;;;;;;5068273;28;19944;-72
2021/09/28 02:50:41;;;;;;;;;;;13.10;99.90;;;;;;5101005;28;19927;-72
2021/09/28 02:53:07;;;;;;;;;;;13.10;99.90;;;;;;5069056;28;19913;-72
2021/09/28 02:55:32;;;;;;;;;;;13.00;99.90;;;;;;5072949;28;19912;-73
2021/09/28 02:57:58;;;;;;;;;;;13.10;99.90;;;;;;5072190;28;19913;-72
2021/09/28 03:00:23;;;;;;;;;;;13.10;99.90;;;;;;5099379;28;19916;-72
2021/09/28 03:02:49;;;;;;;;;;;13.00;99.90;;;;;;5056875;28;19913;-72
2021/09/28 03:05:14;;;;;;;;;;;13.00;99.90;;;;;;5059827;28;19916;-72
2021/09/28 03:07:40;;;;;;;;;;;13.00;99.90;;;;;;5058607;28;19913;-72
2021/09/28 03:10:05;;;;;;;;;;;12.90;99.90;;;;;;5058128;28;19991;-72
2021/09/28 03:12:32;;;;;;;;;;;13.00;99.90;;;;;;5057432;28;20369;-72
2021/09/28 03:14:57;;;;;;;;;;;12.90;99.90;;;;;;5056394;28;19913;-72
2021/09/28 03:17:25;;;;;;;;;;;12.90;99.90;;;;;;5055679;28;20418;-72
2021/09/28 03:19:51;;;;;;;;;;;12.90;99.90;;;;;;5070623;28;20015;-73
2021/09/28 03:22:17;;;;;;;;;;;12.90;99.90;;;;;;5052179;28;20372;-73
2021/09/28 03:24:43;;;;;;;;;;;12.80;99.90;;;;;;5071178;28;19936;-72
2021/09/28 03:27:08;;;;;;;;;;;12.80;99.90;;;;;;5055837;28;19952;-72
2021/09/28 03:29:34;;;;;;;;;;;12.80;99.90;;;;;;5055193;28;19920;-72
2021/09/28 03:31:59;;;;;;;;;;;12.80;99.90;;;;;;5054997;28;19919;-72
2021/09/28 03:34:25;;;;;;;;;;;12.80;99.90;;;;;;5070738;28;19912;-72
2021/09/28 03:36:50;;;;;;;;;;;12.80;99.90;;;;;;5055563;28;19915;-72
2021/09/28 03:39:16;;;;;;;;;;;12.70;99.90;;;;;;5055309;28;20035;-72
2021/09/28 03:41:41;;;;;;;;;;;12.70;99.90;;;;;;5086879;28;19966;-72
2021/09/28 03:44:07;;;;;;;;;;;12.70;99.90;;;;;;5070144;28;19913;-73
2021/09/28 03:46:32;;;;;;;;;;;12.70;99.90;;;;;;5086733;28;19917;-72
2021/09/28 03:48:58;;;;;;;;;;;12.70;99.90;;;;;;5069458;28;19912;-73
2021/09/28 03:51:23;;;;;;;;;;;12.70;99.90;;;;;;5051225;28;20368;-73
2021/09/28 03:53:51;;;;;;;;;;;12.70;99.90;;;;;;5069947;28;19913;-72
2021/09/28 03:56:18;;;;;;;;;;;12.70;99.90;;;;;;5054986;28;19959;-72
2021/09/28 03:58:43;;;;;;;;;;;12.70;99.90;;;;;;5055146;28;20019;-72
2021/09/28 04:01:09;;;;;;;;;;;12.70;99.90;;;;;;5057222;28;19992;-72
2021/09/28 04:03:35;;;;;;;;;;;12.70;99.90;;;;;;5054722;28;20346;-72
2021/09/28 04:06:00;;;;;;;;;;;12.60;99.90;;;;;;5053520;28;19912;-73
2021/09/28 04:08:26;;;;;;;;;;;12.60;99.90;;;;;;5052999;28;20399;-72
2021/09/28 04:10:51;;;;;;;;;;;12.60;99.90;;;;;;5069771;28;20014;-72
2021/09/28 04:13:17;;;;;;;;;;;12.60;99.90;;;;;;5054474;28;19908;-72
2021/09/28 04:15:42;;;;;;;;;;;12.60;99.90;;;;;;5086310;28;19917;-73
2021/09/28 04:18:12;;;;;;;;;;;12.60;99.90;;;;;;5037814;28;19968;-73
2021/09/28 04:20:39;;;;;;;;;;;12.60;99.90;;;;;;5054117;28;19912;-72
2021/09/28 04:23:05;;;;;;;;;;;12.60;99.90;;;;;;5085564;28;19979;-73
2021/09/28 04:25:30;;;;;;;;;;;12.60;99.90;;;;;;5054192;28;19917;-72
2021/09/28 04:27:56;;;;;;;;;;;12.60;99.90;;;;;;5086286;28;19944;-72
2021/09/28 04:30:21;;;;;;;;;;;12.50;99.90;;;;;;5054142;28;19913;-72
2021/09/28 04:32:47;;;;;;;;;;;12.50;99.90;;;;;;5053561;28;19912;-72
2021/09/28 04:35:12;;;;;;;;;;;12.50;99.90;;;;;;5053805;28;19959;-72
2021/09/28 04:37:38;;;;;;;;;;;12.50;99.90;;;;;;5053998;28;20015;-72
2021/09/28 04:40:03;;;;;;;;;;;12.50;99.90;;;;;;5076300;28;19912;-72
2021/09/28 04:42:29;;;;;;;;;;;12.40;99.90;;;;;;5069137;28;19935;-72
2021/09/28 04:44:54;;;;;;;;;;;12.40;99.90;;;;;;5069256;28;19909;-73
2021/09/28 04:47:20;;;;;;;;;;;12.40;99.90;;;;;;5053032;28;19920;-73
2021/09/28 04:49:45;;;;;;;;;;;12.40;99.90;;;;;;5068177;28;19960;-73
2021/09/28 04:52:11;;;;;;;;;;;12.40;99.90;;;;;;5085125;28;20270;-73
2021/09/28 04:54:36;;;;;;;;;;;12.40;99.90;;;;;;5053251;28;19909;-73
2021/09/28 04:57:02;;;;;;;;;;;12.40;99.90;;;;;;5086143;28;20000;-73
2021/09/28 04:59:27;;;;;;;;;;;12.40;99.90;;;;;;5053461;28;19917;-73
2021/09/28 05:01:53;;;;;;;;;;;12.40;99.90;;;;;;5066360;28;19916;-73
2021/09/28 05:04:18;;;;;;;;;;;12.40;99.90;;;;;;5050030;28;19913;-73
2021/09/28 05:06:44;;;;;;;;;;;12.30;99.90;;;;;;5052604;28;19908;-73
2021/09/28 05:09:09;;;;;;;;;;;12.40;99.90;;;;;;5053512;28;19966;-73
2021/09/28 05:11:35;;;;;;;;;;;12.30;99.90;;;;;;5053175;28;20292;-73
2021/09/28 05:14:01;;;;;;;;;;;12.30;99.90;;;;;;5085630;28;19956;-73
2021/09/28 05:16:26;;;;;;;;;;;12.30;99.90;;;;;;5052142;28;20432;-73
2021/09/28 05:18:52;;;;;;;;;;;12.30;99.90;;;;;;5052951;28;19921;-74
2021/09/28 05:21:17;;;;;;;;;;;12.30;99.90;;;;;;5068370;28;19913;-74
2021/09/28 05:23:46;;;;;;;;;;;12.30;99.90;;;;;;5052383;28;20281;-74
2021/09/28 05:26:12;;;;;;;;;;;12.30;99.90;;;;;;5052782;28;20350;-73
2021/09/28 05:28:37;;;;;;;;;;;12.30;99.90;;;;;;5052462;28;20495;-73
2021/09/28 05:31:03;;;;;;;;;;;12.30;99.90;;;;;;5053050;28;19956;-73
2021/09/28 05:33:28;;;;;;;;;;;12.30;99.90;;;;;;5052155;28;19966;-73
2021/09/28 05:35:55;;;;;;;;;;;12.30;99.90;;;;;;5053894;28;19916;-73
2021/09/28 05:38:21;;;;;;;;;;;12.30;99.90;;;;;;5053674;28;20383;-73
2021/09/28 05:40:46;;;;;;;;;;;12.30;99.90;;;;;;5085968;28;19913;-73
2021/09/28 05:43:12;;;;;;;;;;;12.30;99.90;;;;;;5054173;28;19959;-73
2021/09/28 05:45:37;;;;;;;;;;;12.30;99.90;;;;;;5056667;28;19976;-73
2021/09/28 05:48:03;;;;;;;;;;;12.30;99.90;;;;;;5076881;28;19923;-73
2021/09/28 05:50:28;;;;;;;;;;;12.30;99.90;;;;;;5062637;28;19913;-72
2021/09/28 05:52:55;;;;;;;;;;;12.30;99.90;;;;;;5061185;28;19920;-72
2021/09/28 05:55:21;;;;;;;;;;;12.40;99.90;;;;;;5062753;28;20315;-73
2021/09/28 05:57:47;;;;;;;;;;;12.30;99.90;;;;;;5061583;28;19920;-73
2021/09/28 06:00:15;;;;;;;;;;;12.40;99.90;;;;;;5060774;28;20015;-73
2021/09/28 06:02:41;;;;;;;;;;;12.40;99.90;;;;;;5057200;28;20433;-73
2021/09/28 06:05:07;;;;;;;;;;;12.40;99.90;;;;;;5088512;28;19909;-71
2021/09/28 06:07:32;;;;;;;;;;;12.50;99.90;;;;;;5072697;28;19904;-73
2021/09/28 06:09:58;;;;;;;;;;;12.50;99.90;;;;;;5072874;28;19920;-71
2021/09/28 06:12:23;;;;;;;;;;;12.40;99.90;;;;;;5073326;28;19928;-72
2021/09/28 06:14:49;;;;;;;;;;;12.50;99.90;;;;;;5074250;28;20375;-71
2021/09/28 06:17:14;;;;;;;;;;;12.50;99.90;;;;;;5073072;28;19919;-71
2021/09/28 06:19:40;;;;;;;;;;;12.60;99.90;;;;;;5070578;28;19929;-72
2021/09/28 06:22:06;;;;;;;;;;;12.60;99.90;;;;;;5061427;28;19966;-73
2021/09/28 06:24:32;;;;;;;;;;;12.70;99.90;;;;;;5058455;28;19920;-73
2021/09/28 06:27:01;;;;;;;;;;;12.70;99.90;;;;;;5090084;28;19964;-75
2021/09/28 06:29:27;;;;;;;;;;;12.70;99.90;;;;;;5061343;28;19963;-75
2021/09/28 06:31:53;;;;;;;;;;;12.80;99.90;;;;;;5060304;28;20435;-75
2021/09/28 06:34:18;;;;;;;;;;;12.70;99.90;;;;;;5058593;28;19913;-75
2021/09/28 06:36:44;;;;;;;;;;;12.70;99.90;;;;;;5059526;28;19916;-75
2021/09/28 06:39:09;;;;;;;;;;;12.80;99.90;;;;;;5052902;28;19917;-76
2021/09/28 06:41:35;;;;;;;;;;;12.90;99.90;;;;;;5039723;28;20018;-78
2021/09/28 06:44:00;;;;;;;;;;;12.90;99.90;;;;;;5057378;28;20348;-73
2021/09/28 06:46:26;;;;;;;;;;;12.90;99.90;;;;;;5089025;28;19909;-73
2021/09/28 06:48:52;;;;;;;;;;;13.00;99.90;;;;;;5070895;28;19920;-73
2021/09/28 06:51:17;;;;;;;;;;;13.00;99.90;;;;;;5056602;28;19909;-73
2021/09/28 06:53:44;;;;;;;;;;;13.10;99.90;;;;;;5055850;28;20343;-73
2021/09/28 06:56:14;;;;;;;;;;;13.00;99.90;;;;;;5048783;28;19936;-74
2021/09/28 06:58:39;;;;;;;;;;;13.10;99.90;;;;;;5086545;28;20270;-73
2021/09/28 07:01:05;;;;;;;;;;;13.20;99.90;;;;;;5065418;28;19913;-73
2021/09/28 07:03:33;;;;;;;;;;;13.20;99.90;;;;;;5045582;28;19920;-73
2021/09/28 07:05:58;;;;;;;;;;;13.20;99.90;;;;;;5054409;28;20600;-74
2021/09/28 07:08:24;;;;;;;;;;;13.30;99.90;;;;;;5062146;28;19919;-73
2021/09/28 07:10:49;;;;;;;;;;;13.30;99.90;;;;;;5059811;28;19912;-73
2021/09/28 07:13:15;;;;;;;;;;;13.40;99.90;;;;;;5055828;28;19962;-73
2021/09/28 07:15:40;;;;;;;;;;;13.40;99.90;;;;;;5056155;28;20355;-73
2021/09/28 07:18:06;;;;;;;;;;;13.50;99.90;;;;;;5054644;28;19916;-73
2021/09/28 07:20:31;;;;;;;;;;;13.50;99.90;;;;;;5055962;28;19971;-73
2021/09/28 07:22:57;;;;;;;;;;;13.60;99.90;;;;;;5054228;28;19951;-72
2021/09/28 07:25:22;;;;;;;;;;;13.60;99.90;;;;;;5055105;28;19920;-73
2021/09/28 07:27:48;;;;;;;;;;;13.70;99.90;;;;;;5053907;28;19990;-73
2021/09/28 07:30:14;;;;;;;;;;;13.80;99.90;;;;;;5054660;28;20285;-73
2021/09/28 07:32:39;;;;;;;;;;;13.80;99.90;;;;;;5054845;28;19966;-73
2021/09/28 07:35:06;;;;;;;;;;;13.90;99.90;;;;;;5047627;28;19913;-73
2021/09/28 07:37:31;;;;;;;;;;;13.90;99.90;;;;;;5050270;28;19939;-73
2021/09/28 07:39:57;;;;;;;;;;;14.00;99.90;;;;;;5045139;28;19917;-73
2021/09/28 07:42:24;;;;;;;;;;;14.00;99.90;;;;;;5049932;28;19921;-74
2021/09/28 07:44:51;;;;;;;;;;;14.10;99.90;;;;;;5052154;28;19939;-73
2021/09/28 07:47:19;;;;;;;;;;;14.20;99.90;;;;;;5046954;28;19913;-73
2021/09/28 07:49:44;;;;;;;;;;;14.30;99.90;;;;;;5050285;28;20353;-73
2021/09/28 07:52:10;;;;;;;;;;;14.30;99.90;;;;;;5054881;28;19920;-73
2021/09/28 07:54:35;;;;;;;;;;;14.40;99.90;;;;;;5055174;28;20325;-74
2021/09/28 07:57:04;;;;;;;;;;;14.40;99.90;;;;;;5054771;28;20063;-73
2021/09/28 07:59:29;;;;;;;;;;;14.50;99.90;;;;;;5069376;28;20325;-73
2021/09/28 08:01:55;;;;;;;;;;;14.50;99.90;;;;;;5054325;28;19920;-73
2021/09/28 08:04:20;;;;;;;;;;;14.60;99.90;;;;;;5052953;28;19972;-73
2021/09/28 08:06:46;;;;;;;;;;;14.60;99.90;;;;;;5054911;28;19908;-72
2021/09/28 08:09:12;;;;;;;;;;;14.60;99.90;;;;;;5077997;28;19912;-72
2021/09/28 08:11:37;;;;;;;;;;;14.70;99.90;;;;;;5079861;28;20011;-73
2021/09/28 08:14:03;;;;;;;;;;;14.70;99.90;;;;;;5049997;28;20339;-73
2021/09/28 08:16:29;;;;;;;;;;;14.80;99.90;;;;;;5053655;28;19965;-73
2021/09/28 08:18:55;;;;;;;;;;;14.90;99.90;;;;;;5045564;28;20327;-73
2021/09/28 08:21:20;;;;;;;;;;;15.00;99.90;;;;;;5052034;28;19916;-73
2021/09/28 08:23:46;;;;;;;;;;;15.10;99.90;;;;;;5052226;28;19916;-74
2021/09/28 08:29:10;;;;;;;;;;;15.30;99.90;;;;;;5047840;28;20381;-72
2021/09/28 08:31:36;;;;;;;;;;;15.40;99.90;;;;;;5048530;28;20341;-72
2021/09/28 08:34:03;;;;;;;;;;;15.50;99.90;;;;;;5053166;28;19920;-72
2021/09/28 08:36:29;;;;;;;;;;;15.60;99.90;;;;;;5052103;28;19916;-72
2021/09/28 08:38:55;;;;;;;;;;;15.60;99.90;;;;;;5053388;28;19917;-72
2021/09/28 08:41:21;;;;;;;;;;;15.70;99.90;;;;;;5051458;28;19912;-72
2021/09/28 08:43:47;;;;;;;;;;;15.70;99.90;;;;;;5050604;28;20353;-72
2021/09/28 08:46:16;;;;;;;;;;;15.70;99.90;;;;;;5068266;28;19923;-72
2021/09/28 08:48:43;;;;;;;;;;;15.80;99.90;;;;;;5053361;28;20287;-72
2021/09/28 08:51:10;;;;;;;;;;;15.90;99.90;;;;;;5051893;28;19913;-73
2021/09/28 08:53:36;;;;;;;;;;;16.00;99.90;;;;;;5046393;28;20798;-72
2021/09/28 08:56:02;;;;;;;;;;;16.10;99.90;;;;;;5051982;28;19909;-72
2021/09/28 08:58:28;;;;;;;;;;;16.10;99.90;;;;;;5053188;28;19959;-73
2021/09/28 09:01:03;;;;;;;;;;;16.20;99.90;;;;;;5069334;28;19912;-73
2021/09/28 09:03:29;;;;;;;;;;;16.30;99.90;;;;;;5053011;28;20276;-73
2021/09/28 09:05:56;;;;;;;;;;;16.40;99.90;;;;;;5084048;28;19913;-73
2021/09/28 09:08:25;;;;;;;;;;;16.50;99.90;;;;;;5054483;28;19913;-73
2021/09/28 09:11:04;;;;;;;;;;;16.60;99.90;;;;;;5084491;28;19919;-73
2021/09/28 09:13:45;;;;;;;;;;;16.70;99.90;;;;;;5051900;28;19927;-73
2021/09/28 09:16:13;;;;;;;;;;;16.80;99.90;;;;;;5085627;28;19912;-73
2021/09/28 09:18:39;;;;;;;;;;;16.70;99.90;;;;;;5050773;28;19932;-73
2021/09/28 09:21:06;;;;;;;;;;;16.80;99.90;;;;;;5052119;28;20285;-73
2021/09/28 09:23:37;;;;;;;;;;;16.90;99.90;;;;;;5043717;28;20400;-73
2021/09/28 09:26:05;;;;;;;;;;;17.00;99.90;;;;;;5060267;28;19913;-73
2021/09/28 09:28:32;;;;;;;;;;;17.00;99.90;;;;;;5058502;28;19948;-72
2021/09/28 09:31:05;;;;;;;;;;;17.00;99.90;;;;;;5084915;28;19913;-72
2021/09/28 09:33:30;;;;;;;;;;;17.00;99.90;;;;;;5065450;28;19913;-73
2021/09/28 09:35:58;;;;;;;;;;;17.10;99.90;;;;;;5067784;28;19916;-72
2021/09/28 09:38:23;;;;;;;;;;;17.20;99.90;;;;;;5065517;28;19983;-73
2021/09/28 09:40:49;;;;;;;;;;;17.30;99.90;;;;;;5068615;28;19912;-73
2021/09/28 09:43:19;;;;;;;;;;;17.30;99.90;;;;;;5067427;28;19919;-73
2021/09/28 09:45:44;;;;;;;;;;;17.40;99.90;;;;;;5067802;28;20287;-74
2021/09/28 09:48:23;;;;;;;;;;;17.40;99.90;;;;;;5069014;28;19920;-73
2021/09/28 09:51:03;;;;;;;;;;;17.60;99.90;;;;;;5068496;28;19919;-73
2021/09/28 09:53:29;;;;;;;;;;;17.80;99.90;;;;;;5084841;28;19919;-74
2021/09/28 09:55:54;;;;;;;;;;;17.80;99.90;;;;;;5065702;28;19920;-73
2021/09/28 09:58:20;;;;;;;;;;;17.80;99.90;;;;;;5073460;28;19912;-73
2021/09/28 10:00:48;;;;;;;;;;;17.90;99.90;;;;;;5071363;28;19909;-72
2021/09/28 10:03:15;;;;;;;;;;;18.00;99.90;;;;;;5108335;28;19913;-72
2021/09/28 10:05:40;;;;;;;;;;;18.10;99.90;;;;;;5079449;28;20290;-72
2021/09/28 10:08:11;;;;;;;;;;;18.20;99.90;;;;;;5094471;28;19908;-72
2021/09/28 10:10:37;;;;;;;;;;;18.30;99.90;;;;;;5079234;28;19912;-72
2021/09/28 10:13:03;;;;;;;;;;;18.40;99.90;;;;;;5077879;28;19956;-73
2021/09/28 10:15:29;;;;;;;;;;;18.50;99.90;;;;;;5094215;28;20839;-73
2021/09/28 10:17:54;;;;;;;;;;;18.50;99.90;;;;;;5077957;28;19912;-73
2021/09/28 10:20:20;;;;;;;;;;;18.30;99.90;;;;;;5077468;28;19932;-73
2021/09/28 10:22:53;;;;;;;;;;;18.40;99.90;;;;;;5094812;28;19929;-72
2021/09/28 10:25:19;;;;;;;;;;;18.40;99.90;;;;;;5077178;28;19924;-72
2021/09/28 10:27:44;;;;;;;;;;;18.50;99.90;;;;;;5065950;28;19913;-73
2021/09/28 10:30:10;;;;;;;;;;;18.60;99.90;;;;;;5061662;28;19928;-73
2021/09/28 10:32:37;;;;;;;;;;;18.60;99.90;;;;;;5077482;28;19901;-73
2021/09/28 10:35:06;;;;;;;;;;;18.70;99.90;;;;;;5063792;28;20541;-73
2021/09/28 10:37:52;;;;;;;;;;;18.80;99.90;;;;;;5061016;28;19945;-73
2021/09/28 10:40:18;;;;;;;;;;;18.90;99.90;;;;;;5073867;28;19923;-76
2021/09/28 10:42:47;;;;;;;;;;;18.90;99.90;;;;;;5054480;28;19992;-72
2021/09/28 10:45:16;;;;;;;;;;;19.00;99.90;;;;;;5052193;28;19913;-74
2021/09/28 10:47:49;;;;;;;;;;;19.00;99.90;;;;;;5053355;28;19920;-74
2021/09/28 10:50:19;;;;;;;;;;;19.00;99.90;;;;;;5052893;28;20353;-76
2021/09/28 10:52:45;;;;;;;;;;;19.20;99.90;;;;;;5054021;28;19972;-74
2021/09/28 10:55:11;;;;;;;;;;;19.40;99.90;;;;;;5050358;28;20004;-76
2021/09/28 10:58:15;;;;;;;;;;;19.50;99.90;;;;;;5050743;28;19921;-76
2021/09/28 11:00:40;;;;;;;;;;;19.50;99.90;;;;;;5046082;28;19923;-74
2021/09/28 11:03:08;;;;;;;;;;;19.50;99.90;;;;;;5050073;28;19920;-74
2021/09/28 11:05:37;;;;;;;;;;;19.60;99.90;;;;;;5049821;28;19967;-75
2021/09/28 11:08:03;;;;;;;;;;;19.70;99.90;;;;;;5087701;28;19923;-75
2021/09/28 11:10:29;;;;;;;;;;;19.80;99.90;;;;;;5056369;28;20451;-76
2021/09/28 11:12:55;;;;;;;;;;;19.70;99.90;;;;;;5053970;28;19948;-74
2021/09/28 11:15:22;;;;;;;;;;;19.60;99.90;;;;;;5080902;28;19967;-76
2021/09/28 11:17:48;;;;;;;;;;;19.60;99.90;;;;;;5082489;28;19935;-74
2021/09/28 11:20:21;;;;;;;;;;;19.80;99.90;;;;;;5048998;28;19916;-75
2021/09/28 11:22:53;;;;;;;;;;;19.90;99.90;;;;;;5054012;28;19913;-73
2021/09/28 11:25:19;;;;;;;;;;;19.90;99.90;;;;;;5049282;28;19912;-74
2021/09/28 11:27:58;;;;;;;;;;;20.10;99.90;;;;;;5080685;28;19923;-73
2021/09/28 11:30:24;;;;;;;;;;;20.20;99.90;;;;;;5079504;28;19992;-76
2021/09/28 11:32:59;;;;;;;;;;;20.30;99.90;;;;;;5051411;28;20004;-75
2021/09/28 11:35:24;;;;;;;;;;;20.40;99.90;;;;;;5050833;28;20011;-74
2021/09/28 11:37:53;;;;;;;;;;;20.50;99.90;;;;;;5055544;28;20004;-74
2021/09/28 11:40:19;;;;;;;;;;;20.30;99.90;;;;;;5055429;28;19917;-76
2021/09/28 11:42:44;;;;;;;;;;;20.00;99.90;;;;;;5055668;28;20394;-76
2021/09/28 11:45:10;;;;;;;;;;;19.90;99.90;;;;;;5055390;28;19956;-75
2021/09/28 11:47:42;;;;;;;;;;;20.10;99.90;;;;;;5051506;28;20004;-73
2021/09/28 11:50:07;;;;;;;;;;;20.20;99.90;;;;;;5060163;28;19913;-73
2021/09/28 11:52:36;;;;;;;;;;;20.20;99.90;;;;;;5048585;28;19923;-77
2021/09/28 11:55:02;;;;;;;;;;;20.10;99.90;;;;;;5049297;28;19916;-75
2021/09/28 11:57:31;;;;;;;;;;;20.20;99.90;;;;;;5055397;28;20024;-75
2021/09/28 11:59:59;;;;;;;;;;;20.20;99.90;;;;;;5052169;28;20331;-75
2021/09/28 12:02:30;;;;;;;;;;;20.20;99.90;;;;;;5053831;28;20003;-76
2021/09/28 12:10:14;;;;;;;;;;;20.40;99.90;;;;;;5054527;28;19913;-76
2021/09/28 12:12:40;;;;;;;;;;;20.50;99.90;;;;;;5085100;28;19912;-76
2021/09/28 12:15:07;;;;;;;;;;;20.50;99.90;;;;;;5068825;28;20277;-74
2021/09/28 12:17:32;;;;;;;;;;;20.60;99.90;;;;;;5054897;28;20000;-76
2021/09/28 12:20:07;;;;;;;;;;;20.80;99.90;;;;;;5050200;28;20008;-75
2021/09/28 12:22:32;;;;;;;;;;;21.00;99.90;;;;;;5049986;28;19920;-75
2021/09/28 12:24:59;;;;;;;;;;;21.20;99.90;;;;;;5051856;28;19913;-78
2021/09/28 12:27:25;;;;;;;;;;;21.40;99.90;;;;;;5049225;28;20435;-78
2021/09/28 12:29:51;;;;;;;;;;;21.50;99.90;;;;;;5059984;28;19951;-77
2021/09/28 12:32:27;;;;;;;;;;;21.50;99.90;;;;;;5050682;28;19920;-77
2021/09/28 12:34:54;;;;;;;;;;;21.50;99.90;;;;;;5069336;28;19917;-77
2021/09/28 12:37:20;;;;;;;;;;;21.40;99.90;;;;;;5052398;28;19912;-77
2021/09/28 12:39:58;;;;;;;;;;;21.40;99.90;;;;;;5070343;28;19916;-76
2021/09/28 12:42:24;;;;;;;;;;;21.40;99.90;;;;;;5063884;28;19913;-76
2021/09/28 12:44:54;;;;;;;;;;;21.50;99.90;;;;;;5034958;28;20403;-76
2021/09/28 12:47:24;;;;;;;;;;;21.60;99.90;;;;;;5035917;28;19920;-80
2021/09/28 12:49:50;;;;;;;;;;;21.70;99.90;;;;;;5058551;28;19913;-73
2021/09/28 12:52:15;;;;;;;;;;;21.80;99.90;;;;;;5058302;28;19934;-79
2021/09/28 12:54:41;;;;;;;;;;;21.80;99.60;;;;;;5084742;28;19916;-78
2021/09/28 12:57:06;;;;;;;;;;;21.80;99.10;;;;;;5048107;28;19951;-74
2021/09/28 12:59:32;;;;;;;;;;;21.50;99.30;;;;;;5052952;28;20432;-76
2021/09/28 13:01:57;;;;;;;;;;;21.10;99.90;;;;;;5053250;28;19970;-75
2021/09/28 13:04:23;;;;;;;;;;;21.00;99.90;;;;;;5082449;28;19975;-75
2021/09/28 13:06:54;;;;;;;;;;;20.90;99.90;;;;;;5051749;28;19913;-73
2021/09/28 13:09:20;;;;;;;;;;;20.70;99.90;;;;;;5054350;28;19912;-73
2021/09/28 13:11:45;;;;;;;;;;;20.90;99.90;;;;;;5057388;28;19974;-73
2021/09/28 13:14:10;;;;;;;;;;;21.10;99.90;;;;;;5051810;28;20339;-73
2021/09/28 13:16:37;;;;;;;;;;;21.20;99.80;;;;;;5067638;28;19920;-74
2021/09/28 13:19:03;;;;;;;;;;;21.10;99.90;;;;;;5042274;28;19974;-74
2021/09/28 13:21:28;;;;;;;;;;;20.80;99.90;;;;;;5042158;28;20091;-73
2021/09/28 13:23:54;;;;;;;;;;;20.70;99.90;;;;;;5050215;28;20164;-74
2021/09/28 13:26:19;;;;;;;;;;;21.00;99.90;;;;;;5052834;28;19912;-74
2021/09/28 13:28:45;;;;;;;;;;;21.20;99.90;;;;;;5051840;28;19927;-74
2021/09/28 13:31:10;;;;;;;;;;;21.30;99.90;;;;;;5053332;28;19913;-74
2021/09/28 13:33:36;;;;;;;;;;;21.40;99.90;;;;;;5085489;28;19919;-74
2021/09/28 13:36:02;;;;;;;;;;;21.50;99.90;;;;;;5084894;28;19912;-74
2021/09/28 13:38:27;;;;;;;;;;;21.40;99.90;;;;;;5052487;28;19912;-73
2021/09/28 13:40:53;;;;;;;;;;;21.30;99.90;;;;;;5068963;28;19916;-75
2021/09/28 13:43:18;;;;;;;;;;;21.10;99.90;;;;;;5053415;28;19946;-74
2021/09/28 13:45:44;;;;;;;;;;;20.90;99.90;;;;;;5052134;28;20315;-75
2021/09/28 13:48:10;;;;;;;;;;;20.70;99.90;;;;;;5048514;28;19923;-75
2021/09/28 13:50:36;;;;;;;;;;;20.60;99.90;;;;;;5087065;28;20365;-75
2021/09/28 13:53:02;;;;;;;;;;;20.60;99.90;;;;;;5053210;28;19959;-75
2021/09/28 13:55:29;;;;;;;;;;;20.70;99.90;;;;;;5050608;28;19958;-74
2021/09/28 13:57:54;;;;;;;;;;;20.70;99.90;;;;;;5051513;28;19913;-75
2021/09/28 14:00:20;;;;;;;;;;;20.70;99.90;;;;;;5050816;28;19924;-75
2021/09/28 14:02:47;;;;;;;;;;;20.60;99.90;;;;;;5052443;28;19959;-75
2021/09/28 14:05:13;;;;;;;;;;;20.50;99.90;;;;;;5053153;28;19917;-74
2021/09/28 14:07:38;;;;;;;;;;;20.50;99.90;;;;;;5085099;28;19919;-74
2021/09/28 14:10:04;;;;;;;;;;;20.50;99.90;;;;;;5052811;28;20001;-76
2021/09/28 14:12:30;;;;;;;;;;;20.70;99.90;;;;;;5052857;28;19913;-77
2021/09/28 14:14:55;;;;;;;;;;;21.20;99.90;;;;;;5051694;28;19913;-79
2021/09/28 14:17:21;;;;;;;;;;;21.50;99.90;;;;;;5050572;28;19916;-79
2021/09/28 14:19:47;;;;;;;;;;;21.40;99.90;;;;;;5051129;28;19917;-79